sensor_id;sensor_type;location;lat;lon;timestamp;pressure;altitude;pressure_sealevel;temperature;humidity
58018;BME280;43810;50.860;19.226;2023-02-19T00:01:00;98271.97;;;5.04;88.58
58018;BME280;43810;50.860;19.226;2023-02-19T00:03:46;98268.59;;;4.89;88.15
58018;BME280;43810;50.860;19.226;2023-02-19T00:06:12;98264.63;;;4.78;88.38
58018;BME280;43810;50.860;19.226;2023-02-19T00:08:38;98277.41;;;4.71;88.58
58018;BME280;43810;50.860;19.226;2023-02-19T00:11:06;98292.84;;;4.64;88.51
58018;BME280;43810;50.860;19.226;2023-02-19T00:13:41;98293.13;;;4.62;88.33
58018;BME280;43810;50.860;19.226;2023-02-19T00:16:09;98278.41;;;4.61;88.46
58018;BME280;43810;50.860;19.226;2023-02-19T00:18:36;98279.88;;;4.68;88.08
58018;BME280;43810;50.860;19.226;2023-02-19T00:21:03;98280.03;;;4.71;87.83
58018;BME280;43810;50.860;19.226;2023-02-19T00:23:28;98274.78;;;4.71;88.11
58018;BME280;43810;50.860;19.226;2023-02-19T00:25:54;98286.75;;;4.77;87.62
58018;BME280;43810;50.860;19.226;2023-02-19T00:28:21;98285.91;;;4.68;87.43
58018;BME280;43810;50.860;19.226;2023-02-19T00:30:47;98283.09;;;4.64;87.73
58018;BME280;43810;50.860;19.226;2023-02-19T00:33:14;98293.41;;;4.61;88.04
58018;BME280;43810;50.860;19.226;2023-02-19T00:35:40;98290.31;;;4.59;87.88
58018;BME280;43810;50.860;19.226;2023-02-19T00:38:06;98274.22;;;4.60;88.64
58018;BME280;43810;50.860;19.226;2023-02-19T00:40:31;98272.63;;;4.73;88.28
58018;BME280;43810;50.860;19.226;2023-02-19T00:42:57;98284.63;;;4.79;87.59
58018;BME280;43810;50.860;19.226;2023-02-19T00:45:23;98277.31;;;4.76;87.60
58018;BME280;43810;50.860;19.226;2023-02-19T00:47:49;98279.75;;;4.73;87.56
58018;BME280;43810;50.860;19.226;2023-02-19T00:50:15;98283.88;;;4.65;88.28
58018;BME280;43810;50.860;19.226;2023-02-19T00:52:40;98283.59;;;4.53;88.51
58018;BME280;43810;50.860;19.226;2023-02-19T00:55:07;98291.00;;;4.51;88.63
58018;BME280;43810;50.860;19.226;2023-02-19T00:57:32;98285.25;;;4.49;88.68
58018;BME280;43810;50.860;19.226;2023-02-19T00:59:58;98287.88;;;4.49;88.78
58018;BME280;43810;50.860;19.226;2023-02-19T01:02:24;98284.97;;;4.50;89.08
58018;BME280;43810;50.860;19.226;2023-02-19T01:04:51;98293.06;;;4.54;88.85
58018;BME280;43810;50.860;19.226;2023-02-19T01:07:17;98294.00;;;4.58;88.75
58018;BME280;43810;50.860;19.226;2023-02-19T01:09:43;98292.84;;;4.64;88.93
58018;BME280;43810;50.860;19.226;2023-02-19T01:12:09;98269.44;;;4.62;88.99
58018;BME280;43810;50.860;19.226;2023-02-19T01:14:35;98281.31;;;4.74;88.87
58018;BME280;43810;50.860;19.226;2023-02-19T01:17:01;98282.34;;;4.86;88.26
58018;BME280;43810;50.860;19.226;2023-02-19T01:19:27;98275.81;;;4.84;87.81
58018;BME280;43810;50.860;19.226;2023-02-19T01:21:53;98284.19;;;4.86;87.96
58018;BME280;43810;50.860;19.226;2023-02-19T01:24:18;98285.16;;;4.90;87.95
58018;BME280;43810;50.860;19.226;2023-02-19T01:26:44;98291.22;;;4.90;87.71
58018;BME280;43810;50.860;19.226;2023-02-19T01:29:10;98283.72;;;4.84;88.45
58018;BME280;43810;50.860;19.226;2023-02-19T01:31:38;98289.03;;;4.92;87.71
58018;BME280;43810;50.860;19.226;2023-02-19T01:34:04;98271.72;;;4.91;87.72
58018;BME280;43810;50.860;19.226;2023-02-19T01:36:32;98271.22;;;4.89;87.98
58018;BME280;43810;50.860;19.226;2023-02-19T01:39:00;98266.91;;;4.93;87.85
58018;BME280;43810;50.860;19.226;2023-02-19T01:41:36;98274.34;;;4.91;87.88
58018;BME280;43810;50.860;19.226;2023-02-19T01:46:43;98255.06;;;4.82;87.72
58018;BME280;43810;50.860;19.226;2023-02-19T01:49:18;98258.06;;;4.89;87.99
58018;BME280;43810;50.860;19.226;2023-02-19T01:52:21;98250.03;;;4.94;87.96
58018;BME280;43810;50.860;19.226;2023-02-19T01:54:50;98243.41;;;4.97;87.49
58018;BME280;43810;50.860;19.226;2023-02-19T01:57:20;98244.38;;;5.01;87.73
58018;BME280;43810;50.860;19.226;2023-02-19T01:59:49;98236.34;;;5.06;87.90
58018;BME280;43810;50.860;19.226;2023-02-19T02:02:20;98230.19;;;5.11;87.94
58018;BME280;43810;50.860;19.226;2023-02-19T02:04:46;98233.16;;;5.18;87.51
58018;BME280;43810;50.860;19.226;2023-02-19T02:07:13;98230.91;;;5.25;86.99
58018;BME280;43810;50.860;19.226;2023-02-19T02:09:57;98229.34;;;5.24;87.31
58018;BME280;43810;50.860;19.226;2023-02-19T02:12:42;98219.59;;;5.24;86.67
58018;BME280;43810;50.860;19.226;2023-02-19T02:15:08;98213.34;;;5.20;86.72
58018;BME280;43810;50.860;19.226;2023-02-19T02:17:44;98213.50;;;5.15;86.69
58018;BME280;43810;50.860;19.226;2023-02-19T02:26:20;98197.13;;;5.05;87.14
58018;BME280;43810;50.860;19.226;2023-02-19T02:32:06;98203.91;;;4.97;87.06
58018;BME280;43810;50.860;19.226;2023-02-19T02:34:48;98198.94;;;4.95;87.01
58018;BME280;43810;50.860;19.226;2023-02-19T02:37:17;98195.53;;;4.95;87.41
58018;BME280;43810;50.860;19.226;2023-02-19T02:39:44;98196.22;;;5.00;86.95
58018;BME280;43810;50.860;19.226;2023-02-19T02:42:11;98202.09;;;5.06;87.39
58018;BME280;43810;50.860;19.226;2023-02-19T02:44:57;98195.63;;;5.04;87.46
58018;BME280;43810;50.860;19.226;2023-02-19T02:47:50;98190.09;;;5.14;87.08
58018;BME280;43810;50.860;19.226;2023-02-19T02:50:25;98195.81;;;5.16;87.14
58018;BME280;43810;50.860;19.226;2023-02-19T02:53:00;98185.75;;;5.18;87.19
58018;BME280;43810;50.860;19.226;2023-02-19T02:55:48;98186.25;;;5.20;86.69
58018;BME280;43810;50.860;19.226;2023-02-19T02:58:17;98187.97;;;5.24;86.49
58018;BME280;43810;50.860;19.226;2023-02-19T03:00:48;98185.16;;;5.21;86.66
58018;BME280;43810;50.860;19.226;2023-02-19T03:03:36;98186.97;;;5.12;86.92
58018;BME280;43810;50.860;19.226;2023-02-19T03:06:05;98180.78;;;5.16;86.89
58018;BME280;43810;50.860;19.226;2023-02-19T03:11:12;98180.16;;;5.11;87.05
58018;BME280;43810;50.860;19.226;2023-02-19T03:14:07;98173.94;;;5.07;86.70
58018;BME280;43810;50.860;19.226;2023-02-19T03:16:57;98184.91;;;5.00;86.71
58018;BME280;43810;50.860;19.226;2023-02-19T03:19:48;98172.00;;;4.90;86.98
58018;BME280;43810;50.860;19.226;2023-02-19T03:22:20;98168.38;;;4.86;87.00
58018;BME280;43810;50.860;19.226;2023-02-19T03:24:58;98159.22;;;4.83;87.00
58018;BME280;43810;50.860;19.226;2023-02-19T03:27:48;98146.38;;;4.82;86.46
58018;BME280;43810;50.860;19.226;2023-02-19T03:30:19;98158.44;;;4.83;86.77
58018;BME280;43810;50.860;19.226;2023-02-19T03:33:20;98163.31;;;4.89;86.50
58018;BME280;43810;50.860;19.226;2023-02-19T03:35:54;98155.81;;;4.83;86.45
58018;BME280;43810;50.860;19.226;2023-02-19T03:38:25;98157.97;;;4.81;86.36
58018;BME280;43810;50.860;19.226;2023-02-19T03:41:04;98157.69;;;4.82;86.64
58018;BME280;43810;50.860;19.226;2023-02-19T03:43:41;98159.72;;;4.85;86.43
58018;BME280;43810;50.860;19.226;2023-02-19T03:46:19;98163.91;;;4.86;86.30
58018;BME280;43810;50.860;19.226;2023-02-19T03:48:50;98160.44;;;4.77;86.61
58018;BME280;43810;50.860;19.226;2023-02-19T03:51:29;98157.69;;;4.82;86.90
58018;BME280;43810;50.860;19.226;2023-02-19T03:54:15;98164.38;;;4.88;86.80
58018;BME280;43810;50.860;19.226;2023-02-19T03:56:51;98151.88;;;4.94;87.17
58018;BME280;43810;50.860;19.226;2023-02-19T03:59:45;98148.22;;;5.04;86.19
58018;BME280;43810;50.860;19.226;2023-02-19T04:02:22;98152.38;;;5.05;86.63
58018;BME280;43810;50.860;19.226;2023-02-19T04:05:06;98148.38;;;5.07;86.14
58018;BME280;43810;50.860;19.226;2023-02-19T04:07:38;98139.59;;;5.12;86.35
58018;BME280;43810;50.860;19.226;2023-02-19T04:10:06;98153.44;;;5.26;85.72
58018;BME280;43810;50.860;19.226;2023-02-19T04:12:37;98144.41;;;5.18;85.70
58018;BME280;43810;50.860;19.226;2023-02-19T04:15:12;98146.56;;;5.16;86.39
58018;BME280;43810;50.860;19.226;2023-02-19T04:17:47;98145.78;;;5.16;85.96
58018;BME280;43810;50.860;19.226;2023-02-19T04:20:17;98128.44;;;5.15;85.89
58018;BME280;43810;50.860;19.226;2023-02-19T04:22:45;98133.25;;;5.13;86.51
58018;BME280;43810;50.860;19.226;2023-02-19T04:25:12;98129.53;;;5.14;86.69
58018;BME280;43810;50.860;19.226;2023-02-19T04:27:38;98123.19;;;5.15;86.86
58018;BME280;43810;50.860;19.226;2023-02-19T04:30:07;98123.34;;;5.18;87.13
58018;BME280;43810;50.860;19.226;2023-02-19T04:32:34;98125.25;;;5.26;86.87
58018;BME280;43810;50.860;19.226;2023-02-19T04:35:00;98120.72;;;5.27;86.69
58018;BME280;43810;50.860;19.226;2023-02-19T04:37:26;98122.56;;;5.18;86.92
58018;BME280;43810;50.860;19.226;2023-02-19T04:39:51;98111.59;;;5.24;87.47
58018;BME280;43810;50.860;19.226;2023-02-19T04:42:17;98119.81;;;5.23;87.56
58018;BME280;43810;50.860;19.226;2023-02-19T04:44:43;98112.22;;;5.30;87.45
58018;BME280;43810;50.860;19.226;2023-02-19T04:47:09;98111.31;;;5.34;87.62
58018;BME280;43810;50.860;19.226;2023-02-19T04:49:35;98102.66;;;5.34;87.58
58018;BME280;43810;50.860;19.226;2023-02-19T04:52:00;98092.28;;;5.38;87.33
58018;BME280;43810;50.860;19.226;2023-02-19T04:54:26;98076.13;;;5.30;87.53
58018;BME280;43810;50.860;19.226;2023-02-19T04:56:52;98082.75;;;5.19;88.12
58018;BME280;43810;50.860;19.226;2023-02-19T04:59:18;98078.16;;;5.25;88.25
58018;BME280;43810;50.860;19.226;2023-02-19T05:01:44;98076.88;;;5.22;87.98
58018;BME280;43810;50.860;19.226;2023-02-19T05:04:09;98069.78;;;5.31;88.38
58018;BME280;43810;50.860;19.226;2023-02-19T05:06:35;98076.94;;;5.40;88.05
58018;BME280;43810;50.860;19.226;2023-02-19T05:09:01;98077.72;;;5.40;87.68
58018;BME280;43810;50.860;19.226;2023-02-19T05:11:27;98070.09;;;5.38;87.96
58018;BME280;43810;50.860;19.226;2023-02-19T05:13:54;98058.97;;;5.42;88.43
58018;BME280;43810;50.860;19.226;2023-02-19T05:16:20;98052.31;;;5.53;88.18
58018;BME280;43810;50.860;19.226;2023-02-19T05:18:45;98050.47;;;5.62;88.19
58018;BME280;43810;50.860;19.226;2023-02-19T05:21:12;98052.66;;;5.68;87.50
58018;BME280;43810;50.860;19.226;2023-02-19T05:23:37;98051.41;;;5.74;87.63
58018;BME280;43810;50.860;19.226;2023-02-19T05:26:08;98051.28;;;5.71;87.95
58018;BME280;43810;50.860;19.226;2023-02-19T05:28:34;98048.78;;;5.66;88.71
58018;BME280;43810;50.860;19.226;2023-02-19T05:31:04;98057.63;;;5.61;88.85
58018;BME280;43810;50.860;19.226;2023-02-19T05:33:31;98058.72;;;5.60;88.71
58018;BME280;43810;50.860;19.226;2023-02-19T05:35:57;98051.88;;;5.59;89.05
58018;BME280;43810;50.860;19.226;2023-02-19T05:38:23;98057.16;;;5.59;89.50
58018;BME280;43810;50.860;19.226;2023-02-19T05:40:49;98055.13;;;5.56;89.46
58018;BME280;43810;50.860;19.226;2023-02-19T05:43:16;98053.28;;;5.57;89.38
58018;BME280;43810;50.860;19.226;2023-02-19T05:45:42;98054.34;;;5.47;89.58
58018;BME280;43810;50.860;19.226;2023-02-19T05:48:10;98058.84;;;5.47;90.17
58018;BME280;43810;50.860;19.226;2023-02-19T05:50:36;98063.16;;;5.43;90.51
58018;BME280;43810;50.860;19.226;2023-02-19T05:53:03;98055.06;;;5.39;90.12
58018;BME280;43810;50.860;19.226;2023-02-19T05:55:33;98062.84;;;5.35;90.64
58018;BME280;43810;50.860;19.226;2023-02-19T05:57:59;98071.34;;;5.41;90.48
58018;BME280;43810;50.860;19.226;2023-02-19T06:00:26;98058.19;;;5.41;90.26
58018;BME280;43810;50.860;19.226;2023-02-19T06:02:52;98070.44;;;5.37;90.78
58018;BME280;43810;50.860;19.226;2023-02-19T06:05:19;98064.69;;;5.35;90.77
58018;BME280;43810;50.860;19.226;2023-02-19T06:07:45;98079.41;;;5.36;90.88
58018;BME280;43810;50.860;19.226;2023-02-19T06:10:11;98081.88;;;5.32;91.00
58018;BME280;43810;50.860;19.226;2023-02-19T06:12:38;98077.56;;;5.36;90.93
58018;BME280;43810;50.860;19.226;2023-02-19T06:15:05;98079.25;;;5.32;91.29
58018;BME280;43810;50.860;19.226;2023-02-19T06:17:32;98081.88;;;5.32;91.11
58018;BME280;43810;50.860;19.226;2023-02-19T06:19:58;98071.66;;;5.31;91.06
58018;BME280;43810;50.860;19.226;2023-02-19T06:22:24;98084.22;;;5.34;91.38
58018;BME280;43810;50.860;19.226;2023-02-19T06:24:50;98091.16;;;5.30;91.17
58018;BME280;43810;50.860;19.226;2023-02-19T06:27:15;98093.31;;;5.28;91.28
58018;BME280;43810;50.860;19.226;2023-02-19T06:29:41;98097.19;;;5.22;91.55
58018;BME280;43810;50.860;19.226;2023-02-19T06:32:07;98099.16;;;5.16;91.55
58018;BME280;43810;50.860;19.226;2023-02-19T06:34:34;98098.25;;;5.21;91.98
58018;BME280;43810;50.860;19.226;2023-02-19T06:37:00;98098.44;;;5.24;91.73
58018;BME280;43810;50.860;19.226;2023-02-19T06:39:27;98101.22;;;5.28;91.48
58018;BME280;43810;50.860;19.226;2023-02-19T06:41:57;98091.91;;;5.22;91.55
58018;BME280;43810;50.860;19.226;2023-02-19T06:44:23;98101.50;;;5.18;92.06
58018;BME280;43810;50.860;19.226;2023-02-19T06:46:49;98098.75;;;5.23;92.15
58018;BME280;43810;50.860;19.226;2023-02-19T06:49:16;98101.69;;;5.30;91.85
58018;BME280;43810;50.860;19.226;2023-02-19T06:51:42;98102.16;;;5.32;91.39
58018;BME280;43810;50.860;19.226;2023-02-19T06:54:08;98101.22;;;5.28;91.59
58018;BME280;43810;50.860;19.226;2023-02-19T06:56:36;98095.81;;;5.24;91.93
58018;BME280;43810;50.860;19.226;2023-02-19T06:59:06;98106.03;;;5.26;91.77
58018;BME280;43810;50.860;19.226;2023-02-19T07:01:33;98096.72;;;5.28;91.48
58018;BME280;43810;50.860;19.226;2023-02-19T07:04:01;98112.53;;;5.28;91.39
58018;BME280;43810;50.860;19.226;2023-02-19T07:06:27;98111.44;;;5.29;91.35
58018;BME280;43810;50.860;19.226;2023-02-19T07:08:54;98109.88;;;5.20;90.58
58018;BME280;43810;50.860;19.226;2023-02-19T07:11:20;98122.81;;;5.08;90.10
58018;BME280;43810;50.860;19.226;2023-02-19T07:13:47;98117.19;;;4.92;90.29
58018;BME280;43810;50.860;19.226;2023-02-19T07:16:13;98133.53;;;4.80;90.32
58018;BME280;43810;50.860;19.226;2023-02-19T07:18:39;98136.09;;;4.72;90.26
58018;BME280;43810;50.860;19.226;2023-02-19T07:21:08;98134.97;;;4.64;90.45
58018;BME280;43810;50.860;19.226;2023-02-19T07:23:35;98134.00;;;4.60;90.90
58018;BME280;43810;50.860;19.226;2023-02-19T07:26:01;98137.56;;;4.55;90.98
58018;BME280;43810;50.860;19.226;2023-02-19T07:28:27;98130.44;;;4.56;91.00
58018;BME280;43810;50.860;19.226;2023-02-19T07:30:53;98129.66;;;4.55;91.21
58018;BME280;43810;50.860;19.226;2023-02-19T07:33:19;98121.63;;;4.60;91.00
58018;BME280;43810;50.860;19.226;2023-02-19T07:35:46;98132.03;;;4.66;90.99
58018;BME280;43810;50.860;19.226;2023-02-19T07:38:23;98132.44;;;4.59;91.05
58018;BME280;43810;50.860;19.226;2023-02-19T07:40:54;98135.56;;;4.61;90.97
58018;BME280;43810;50.860;19.226;2023-02-19T07:43:21;98141.31;;;4.63;91.16
58018;BME280;43810;50.860;19.226;2023-02-19T07:45:47;98141.41;;;4.58;90.33
58018;BME280;43810;50.860;19.226;2023-02-19T07:48:13;98146.31;;;4.51;90.77
58018;BME280;43810;50.860;19.226;2023-02-19T07:50:39;98144.38;;;4.56;90.64
58018;BME280;43810;50.860;19.226;2023-02-19T07:53:05;98144.00;;;4.49;90.89
58018;BME280;43810;50.860;19.226;2023-02-19T07:55:32;98147.63;;;4.40;90.18
58018;BME280;43810;50.860;19.226;2023-02-19T07:57:59;98154.50;;;4.27;90.30
58018;BME280;43810;50.860;19.226;2023-02-19T08:00:26;98149.13;;;4.32;89.67
58018;BME280;43810;50.860;19.226;2023-02-19T08:02:52;98154.28;;;4.23;89.34
58018;BME280;43810;50.860;19.226;2023-02-19T08:05:25;98164.66;;;4.20;89.71
58018;BME280;43810;50.860;19.226;2023-02-19T08:07:51;98155.22;;;4.05;89.79
58018;BME280;43810;50.860;19.226;2023-02-19T08:10:17;98163.41;;;3.90;90.05
58018;BME280;43810;50.860;19.226;2023-02-19T08:13:01;98149.69;;;3.93;90.43
58018;BME280;43810;50.860;19.226;2023-02-19T08:15:46;98153.69;;;3.90;90.06
58018;BME280;43810;50.860;19.226;2023-02-19T08:18:13;98153.31;;;3.83;90.65
58018;BME280;43810;50.860;19.226;2023-02-19T08:20:41;98156.31;;;3.90;90.64
58018;BME280;43810;50.860;19.226;2023-02-19T08:23:08;98153.09;;;3.94;90.84
58018;BME280;43810;50.860;19.226;2023-02-19T08:25:34;98165.31;;;3.76;89.50
58018;BME280;43810;50.860;19.226;2023-02-19T08:28:01;98160.72;;;3.54;89.91
58018;BME280;43810;50.860;19.226;2023-02-19T08:30:28;98162.09;;;3.38;89.61
58018;BME280;43810;50.860;19.226;2023-02-19T08:32:55;98175.44;;;3.41;89.91
58018;BME280;43810;50.860;19.226;2023-02-19T08:35:22;98173.19;;;3.48;90.22
58018;BME280;43810;50.860;19.226;2023-02-19T08:37:48;98178.44;;;3.62;90.63
58018;BME280;43810;50.860;19.226;2023-02-19T08:40:14;98174.47;;;3.65;89.84
58018;BME280;43810;50.860;19.226;2023-02-19T08:42:40;98178.25;;;3.72;89.90
58018;BME280;43810;50.860;19.226;2023-02-19T08:45:06;98169.88;;;3.84;89.74
58018;BME280;43810;50.860;19.226;2023-02-19T08:47:34;98161.69;;;3.99;89.75
58018;BME280;43810;50.860;19.226;2023-02-19T08:50:00;98162.84;;;3.93;89.00
58018;BME280;43810;50.860;19.226;2023-02-19T08:52:27;98176.09;;;3.88;89.09
58018;BME280;43810;50.860;19.226;2023-02-19T08:54:52;98155.66;;;3.99;89.45
58018;BME280;43810;50.860;19.226;2023-02-19T08:57:18;98153.66;;;4.04;88.78
58018;BME280;43810;50.860;19.226;2023-02-19T08:59:44;98175.97;;;3.93;88.85
58018;BME280;43810;50.860;19.226;2023-02-19T09:02:10;98174.50;;;4.01;88.66
58018;BME280;43810;50.860;19.226;2023-02-19T09:04:37;98169.06;;;4.11;88.70
58018;BME280;43810;50.860;19.226;2023-02-19T09:07:04;98169.34;;;4.09;88.75
58018;BME280;43810;50.860;19.226;2023-02-19T09:09:32;98184.34;;;3.95;87.77
58018;BME280;43810;50.860;19.226;2023-02-19T09:11:58;98176.59;;;3.76;87.97
58018;BME280;43810;50.860;19.226;2023-02-19T09:14:24;98192.34;;;3.49;88.51
58018;BME280;43810;50.860;19.226;2023-02-19T09:16:50;98208.47;;;3.42;89.17
58018;BME280;43810;50.860;19.226;2023-02-19T09:19:16;98206.81;;;3.46;89.35
58018;BME280;43810;50.860;19.226;2023-02-19T09:21:42;98220.25;;;3.45;89.66
58018;BME280;43810;50.860;19.226;2023-02-19T09:24:08;98219.38;;;3.36;89.49
58018;BME280;43810;50.860;19.226;2023-02-19T09:26:34;98238.44;;;3.41;90.30
58018;BME280;43810;50.860;19.226;2023-02-19T09:29:00;98237.25;;;3.34;89.63
58018;BME280;43810;50.860;19.226;2023-02-19T09:31:26;98239.25;;;3.23;89.76
58018;BME280;43810;50.860;19.226;2023-02-19T09:33:52;98226.34;;;3.27;89.65
58018;BME280;43810;50.860;19.226;2023-02-19T09:36:18;98227.38;;;3.12;89.48
58018;BME280;43810;50.860;19.226;2023-02-19T09:38:44;98238.75;;;3.07;89.77
58018;BME280;43810;50.860;19.226;2023-02-19T09:41:30;98227.44;;;2.93;89.40
58018;BME280;43810;50.860;19.226;2023-02-19T09:43:57;98222.41;;;2.78;90.32
58018;BME280;43810;50.860;19.226;2023-02-19T09:46:34;98240.09;;;2.86;90.62
58018;BME280;43810;50.860;19.226;2023-02-19T09:49:13;98240.72;;;2.97;90.65
58018;BME280;43810;50.860;19.226;2023-02-19T09:51:43;98236.41;;;3.06;90.54
58018;BME280;43810;50.860;19.226;2023-02-19T09:54:36;98253.22;;;3.05;90.70
58018;BME280;43810;50.860;19.226;2023-02-19T09:57:03;98238.31;;;3.00;90.62
58018;BME280;43810;50.860;19.226;2023-02-19T09:59:33;98240.78;;;3.10;90.86
58018;BME280;43810;50.860;19.226;2023-02-19T10:02:14;98248.59;;;3.15;90.26
58018;BME280;43810;50.860;19.226;2023-02-19T10:04:42;98251.03;;;3.26;90.40
58018;BME280;43810;50.860;19.226;2023-02-19T10:07:36;98248.31;;;3.17;89.97
58018;BME280;43810;50.860;19.226;2023-02-19T10:10:04;98237.31;;;3.15;89.97
58018;BME280;43810;50.860;19.226;2023-02-19T10:12:41;98247.81;;;3.15;89.82
58018;BME280;43810;50.860;19.226;2023-02-19T10:17:52;98247.53;;;3.16;89.11
58018;BME280;43810;50.860;19.226;2023-02-19T10:20:20;98256.38;;;3.21;88.79
58018;BME280;43810;50.860;19.226;2023-02-19T10:23:00;98257.16;;;3.21;88.86
58018;BME280;43810;50.860;19.226;2023-02-19T10:25:27;98261.44;;;3.17;88.78
58018;BME280;43810;50.860;19.226;2023-02-19T10:28:00;98264.56;;;3.19;88.82
58018;BME280;43810;50.860;19.226;2023-02-19T10:30:30;98264.91;;;3.12;88.05
58018;BME280;43810;50.860;19.226;2023-02-19T10:35:36;98274.44;;;3.41;89.50
58018;BME280;43810;50.860;19.226;2023-02-19T10:38:04;98280.88;;;3.62;88.81
58018;BME280;43810;50.860;19.226;2023-02-19T10:40:31;98283.41;;;3.67;88.09
58018;BME280;43810;50.860;19.226;2023-02-19T10:43:02;98281.47;;;3.59;87.93
58018;BME280;43810;50.860;19.226;2023-02-19T10:45:38;98286.78;;;3.54;87.17
58018;BME280;43810;50.860;19.226;2023-02-19T10:48:06;98287.91;;;3.34;87.26
58018;BME280;43810;50.860;19.226;2023-02-19T10:50:50;98298.38;;;3.21;87.07
58018;BME280;43810;50.860;19.226;2023-02-19T10:56:26;98279.53;;;3.18;88.47
58018;BME280;43810;50.860;19.226;2023-02-19T10:58:53;98291.09;;;3.31;88.66
58018;BME280;43810;50.860;19.226;2023-02-19T11:01:23;98283.81;;;3.28;88.61
58018;BME280;43810;50.860;19.226;2023-02-19T11:04:15;98295.84;;;3.15;88.83
58018;BME280;43810;50.860;19.226;2023-02-19T11:06:42;98287.69;;;3.17;89.17
58018;BME280;43810;50.860;19.226;2023-02-19T11:09:33;98291.94;;;3.13;89.22
58018;BME280;43810;50.860;19.226;2023-02-19T11:12:02;98294.56;;;3.13;89.50
58018;BME280;43810;50.860;19.226;2023-02-19T11:14:31;98306.34;;;3.15;89.93
58018;BME280;43810;50.860;19.226;2023-02-19T11:17:00;98297.25;;;3.08;89.72
58018;BME280;43810;50.860;19.226;2023-02-19T11:19:35;98295.09;;;3.29;90.32
58018;BME280;43810;50.860;19.226;2023-02-19T11:24:55;98300.53;;;3.32;89.06
58018;BME280;43810;50.860;19.226;2023-02-19T11:27:25;98298.06;;;3.41;89.64
58018;BME280;43810;50.860;19.226;2023-02-19T11:29:52;98300.25;;;3.34;89.03
58018;BME280;43810;50.860;19.226;2023-02-19T11:32:28;98307.19;;;3.43;89.77
58018;BME280;43810;50.860;19.226;2023-02-19T11:35:17;98306.63;;;3.46;88.83
58018;BME280;43810;50.860;19.226;2023-02-19T11:38:00;98308.34;;;3.37;89.12
58018;BME280;43810;50.860;19.226;2023-02-19T11:40:52;98322.03;;;3.34;89.02
58018;BME280;43810;50.860;19.226;2023-02-19T11:49:20;98321.19;;;3.06;87.68
58018;BME280;43810;50.860;19.226;2023-02-19T12:05:27;98333.56;;;3.01;88.97
58018;BME280;43810;50.860;19.226;2023-02-19T12:16:24;98337.47;;;3.22;89.47
58018;BME280;43810;50.860;19.226;2023-02-19T12:19:20;98338.47;;;3.26;89.01
58018;BME280;43810;50.860;19.226;2023-02-19T12:22:15;98338.75;;;3.25;88.41
58018;BME280;43810;50.860;19.226;2023-02-19T12:24:56;98342.44;;;3.24;88.32
58018;BME280;43810;50.860;19.226;2023-02-19T12:40:59;98360.59;;;3.20;86.52
58018;BME280;43810;50.860;19.226;2023-02-19T12:43:36;98359.47;;;3.26;85.42
58018;BME280;43810;50.860;19.226;2023-02-19T12:46:11;98363.16;;;3.25;85.84
58018;BME280;43810;50.860;19.226;2023-02-19T12:51:20;98375.28;;;3.02;87.97
58018;BME280;43810;50.860;19.226;2023-02-19T12:53:54;98386.44;;;3.13;88.52
58018;BME280;43810;50.860;19.226;2023-02-19T12:56:26;98392.56;;;3.60;89.76
58018;BME280;43810;50.860;19.226;2023-02-19T12:58:57;98393.94;;;4.03;88.92
58018;BME280;43810;50.860;19.226;2023-02-19T13:01:34;98397.59;;;3.88;84.29
58018;BME280;43810;50.860;19.226;2023-02-19T13:06:45;98411.31;;;3.53;84.02
58018;BME280;43810;50.860;19.226;2023-02-19T13:09:18;98419.03;;;3.63;84.19
58018;BME280;43810;50.860;19.226;2023-02-19T13:11:55;98426.00;;;3.73;83.36
58018;BME280;43810;50.860;19.226;2023-02-19T13:14:31;98411.16;;;3.63;82.77
58018;BME280;43810;50.860;19.226;2023-02-19T13:17:10;98424.22;;;4.01;81.82
58018;BME280;43810;50.860;19.226;2023-02-19T13:19:41;98433.78;;;4.10;82.18
58018;BME280;43810;50.860;19.226;2023-02-19T13:22:31;98440.06;;;4.28;80.92
58018;BME280;43810;50.860;19.226;2023-02-19T13:25:20;98440.16;;;4.37;79.92
58018;BME280;43810;50.860;19.226;2023-02-19T13:28:04;98435.22;;;4.76;81.14
58018;BME280;43810;50.860;19.226;2023-02-19T13:33:21;98433.47;;;5.35;76.19
58018;BME280;43810;50.860;19.226;2023-02-19T13:36:03;98437.84;;;4.90;73.15
58018;BME280;43810;50.860;19.226;2023-02-19T13:38:32;98445.84;;;4.85;73.16
58018;BME280;43810;50.860;19.226;2023-02-19T13:41:01;98437.47;;;4.55;74.51
58018;BME280;43810;50.860;19.226;2023-02-19T13:43:31;98444.81;;;4.26;74.29
58018;BME280;43810;50.860;19.226;2023-02-19T13:46:09;98447.78;;;4.06;75.58
58018;BME280;43810;50.860;19.226;2023-02-19T13:48:38;98459.75;;;3.98;76.03
58018;BME280;43810;50.860;19.226;2023-02-19T14:14:51;98483.06;;;3.67;73.95
58018;BME280;43810;50.860;19.226;2023-02-19T14:22:48;98496.22;;;3.48;73.74
58018;BME280;43810;50.860;19.226;2023-02-19T14:28:21;98515.59;;;3.52;75.34
58018;BME280;43810;50.860;19.226;2023-02-19T14:33:42;98512.75;;;3.68;74.42
58018;BME280;43810;50.860;19.226;2023-02-19T14:36:41;98526.16;;;3.66;74.13
58018;BME280;43810;50.860;19.226;2023-02-19T14:39:11;98529.66;;;3.62;72.90
58018;BME280;43810;50.860;19.226;2023-02-19T14:41:41;98528.66;;;3.58;73.72
58018;BME280;43810;50.860;19.226;2023-02-19T14:44:21;98518.22;;;3.52;73.05
58018;BME280;43810;50.860;19.226;2023-02-19T14:47:13;98535.06;;;3.51;74.23
58018;BME280;43810;50.860;19.226;2023-02-19T14:50:04;98541.41;;;3.45;73.71
58018;BME280;43810;50.860;19.226;2023-02-19T14:52:34;98539.84;;;3.44;73.21
58018;BME280;43810;50.860;19.226;2023-02-19T14:57:42;98525.78;;;3.35;73.80
58018;BME280;43810;50.860;19.226;2023-02-19T15:00:28;98537.44;;;3.29;73.21
58018;BME280;43810;50.860;19.226;2023-02-19T15:02:56;98532.97;;;3.30;73.96
58018;BME280;43810;50.860;19.226;2023-02-19T15:05:29;98534.53;;;3.31;74.33
58018;BME280;43810;50.860;19.226;2023-02-19T15:08:02;98545.31;;;3.29;73.30
58018;BME280;43810;50.860;19.226;2023-02-19T15:10:30;98549.97;;;3.32;73.18
58018;BME280;43810;50.860;19.226;2023-02-19T15:13:00;98549.19;;;3.32;73.32